sensor_id;sensor_type;location;lat;lon;timestamp;P1;durP1;ratioP1;P2;durP2;ratioP2
12970;SDS011;6550;48.650;8.774;2023-03-14T00:00:19;0.70;;;0.63;;
12970;SDS011;6550;48.650;8.774;2023-03-14T00:02:46;0.50;;;0.50;;
12970;SDS011;6550;48.650;8.774;2023-03-14T00:05:18;1.00;;;0.70;;
12970;SDS011;6550;48.650;8.774;2023-03-14T00:07:48;0.57;;;0.57;;
12970;SDS011;6550;48.650;8.774;2023-03-14T00:10:17;1.03;;;0.50;;
12970;SDS011;6550;48.650;8.774;2023-03-14T00:12:44;1.30;;;0.70;;
12970;SDS011;6550;48.650;8.774;2023-03-14T00:15:13;1.10;;;0.70;;
12970;SDS011;6550;48.650;8.774;2023-03-14T00:17:40;0.50;;;0.50;;
12970;SDS011;6550;48.650;8.774;2023-03-14T00:20:10;0.57;;;0.57;;
12970;SDS011;6550;48.650;8.774;2023-03-14T00:22:40;0.70;;;0.70;;
12970;SDS011;6550;48.650;8.774;2023-03-14T00:25:08;0.53;;;0.47;;
12970;SDS011;6550;48.650;8.774;2023-03-14T00:27:36;0.60;;;0.60;;
12970;SDS011;6550;48.650;8.774;2023-03-14T00:30:03;0.50;;;0.40;;
12970;SDS011;6550;48.650;8.774;2023-03-14T00:32:31;0.77;;;0.70;;
12970;SDS011;6550;48.650;8.774;2023-03-14T00:35:00;1.73;;;0.73;;
12970;SDS011;6550;48.650;8.774;2023-03-14T00:37:27;1.50;;;0.57;;
12970;SDS011;6550;48.650;8.774;2023-03-14T00:39:53;0.83;;;0.50;;
12970;SDS011;6550;48.650;8.774;2023-03-14T00:42:20;0.80;;;0.80;;
12970;SDS011;6550;48.650;8.774;2023-03-14T00:44:49;1.00;;;0.70;;
12970;SDS011;6550;48.650;8.774;2023-03-14T00:47:16;0.60;;;0.60;;
12970;SDS011;6550;48.650;8.774;2023-03-14T00:49:45;0.67;;;0.67;;
12970;SDS011;6550;48.650;8.774;2023-03-14T00:52:13;1.20;;;1.00;;
12970;SDS011;6550;48.650;8.774;2023-03-14T00:54:41;0.67;;;0.60;;
12970;SDS011;6550;48.650;8.774;2023-03-14T00:57:13;0.70;;;0.60;;
12970;SDS011;6550;48.650;8.774;2023-03-14T00:59:42;0.70;;;0.70;;
12970;SDS011;6550;48.650;8.774;2023-03-14T01:02:08;1.30;;;0.80;;
12970;SDS011;6550;48.650;8.774;2023-03-14T01:04:38;0.70;;;0.70;;
12970;SDS011;6550;48.650;8.774;2023-03-14T01:07:09;0.83;;;0.60;;
12970;SDS011;6550;48.650;8.774;2023-03-14T01:09:38;2.30;;;0.67;;
12970;SDS011;6550;48.650;8.774;2023-03-14T01:12:07;2.37;;;0.50;;
12970;SDS011;6550;48.650;8.774;2023-03-14T01:14:33;0.70;;;0.60;;
12970;SDS011;6550;48.650;8.774;2023-03-14T01:17:01;1.37;;;0.63;;
12970;SDS011;6550;48.650;8.774;2023-03-14T01:19:28;0.80;;;0.60;;
12970;SDS011;6550;48.650;8.774;2023-03-14T01:22:00;0.60;;;0.57;;
12970;SDS011;6550;48.650;8.774;2023-03-14T01:24:29;0.73;;;0.70;;
12970;SDS011;6550;48.650;8.774;2023-03-14T01:26:56;1.17;;;0.80;;
12970;SDS011;6550;48.650;8.774;2023-03-14T01:29:23;0.50;;;0.50;;
12970;SDS011;6550;48.650;8.774;2023-03-14T01:31:52;0.50;;;0.50;;
12970;SDS011;6550;48.650;8.774;2023-03-14T01:34:24;0.70;;;0.70;;
12970;SDS011;6550;48.650;8.774;2023-03-14T01:36:51;0.47;;;0.30;;
12970;SDS011;6550;48.650;8.774;2023-03-14T01:39:17;0.90;;;0.57;;
12970;SDS011;6550;48.650;8.774;2023-03-14T01:41:44;0.60;;;0.40;;
12970;SDS011;6550;48.650;8.774;2023-03-14T01:44:11;1.23;;;0.50;;
12970;SDS011;6550;48.650;8.774;2023-03-14T01:46:42;0.37;;;0.37;;
12970;SDS011;6550;48.650;8.774;2023-03-14T01:54:51;0.80;;;0.50;;
12970;SDS011;6550;48.650;8.774;2023-03-14T02:00:10;1.00;;;0.43;;
12970;SDS011;6550;48.650;8.774;2023-03-14T02:02:48;0.60;;;0.60;;
12970;SDS011;6550;48.650;8.774;2023-03-14T02:05:47;0.53;;;0.50;;
12970;SDS011;6550;48.650;8.774;2023-03-14T02:08:18;0.70;;;0.60;;
12970;SDS011;6550;48.650;8.774;2023-03-14T02:10:49;0.40;;;0.40;;
12970;SDS011;6550;48.650;8.774;2023-03-14T02:13:17;0.77;;;0.30;;
12970;SDS011;6550;48.650;8.774;2023-03-14T02:15:46;0.70;;;0.50;;
12970;SDS011;6550;48.650;8.774;2023-03-14T02:18:15;1.23;;;0.60;;
12970;SDS011;6550;48.650;8.774;2023-03-14T02:20:57;0.37;;;0.30;;
12970;SDS011;6550;48.650;8.774;2023-03-14T02:26:25;0.97;;;0.50;;
12970;SDS011;6550;48.650;8.774;2023-03-14T02:28:57;1.00;;;0.40;;
12970;SDS011;6550;48.650;8.774;2023-03-14T02:31:25;1.17;;;0.50;;
12970;SDS011;6550;48.650;8.774;2023-03-14T02:33:52;1.27;;;0.60;;
12970;SDS011;6550;48.650;8.774;2023-03-14T02:36:24;0.33;;;0.33;;
12970;SDS011;6550;48.650;8.774;2023-03-14T02:41:38;2.07;;;0.40;;
12970;SDS011;6550;48.650;8.774;2023-03-14T02:44:08;0.40;;;0.37;;
12970;SDS011;6550;48.650;8.774;2023-03-14T02:46:35;1.90;;;0.47;;
12970;SDS011;6550;48.650;8.774;2023-03-14T02:49:03;3.03;;;0.50;;
12970;SDS011;6550;48.650;8.774;2023-03-14T02:51:33;0.30;;;0.30;;
12970;SDS011;6550;48.650;8.774;2023-03-14T02:54:01;0.57;;;0.40;;
12970;SDS011;6550;48.650;8.774;2023-03-14T02:56:27;0.98;;;0.52;;
12970;SDS011;6550;48.650;8.774;2023-03-14T02:58:54;0.40;;;0.20;;
12970;SDS011;6550;48.650;8.774;2023-03-14T03:01:26;0.90;;;0.33;;
12970;SDS011;6550;48.650;8.774;2023-03-14T03:03:53;0.40;;;0.37;;
12970;SDS011;6550;48.650;8.774;2023-03-14T03:06:19;1.13;;;0.67;;
12970;SDS011;6550;48.650;8.774;2023-03-14T03:08:46;1.63;;;0.70;;
12970;SDS011;6550;48.650;8.774;2023-03-14T03:11:13;1.23;;;0.77;;
12970;SDS011;6550;48.650;8.774;2023-03-14T03:13:44;0.40;;;0.40;;
12970;SDS011;6550;48.650;8.774;2023-03-14T03:16:11;0.53;;;0.43;;
12970;SDS011;6550;48.650;8.774;2023-03-14T03:18:39;0.40;;;0.40;;
12970;SDS011;6550;48.650;8.774;2023-03-14T03:21:06;1.03;;;0.50;;
12970;SDS011;6550;48.650;8.774;2023-03-14T03:23:37;1.33;;;0.50;;
12970;SDS011;6550;48.650;8.774;2023-03-14T03:26:03;1.60;;;0.70;;
12970;SDS011;6550;48.650;8.774;2023-03-14T03:28:30;3.10;;;0.67;;
12970;SDS011;6550;48.650;8.774;2023-03-14T03:30:57;0.70;;;0.60;;
12970;SDS011;6550;48.650;8.774;2023-03-14T03:33:24;1.90;;;0.40;;
12970;SDS011;6550;48.650;8.774;2023-03-14T03:35:51;1.63;;;0.60;;
12970;SDS011;6550;48.650;8.774;2023-03-14T03:38:18;0.57;;;0.40;;
12970;SDS011;6550;48.650;8.774;2023-03-14T03:40:46;1.40;;;0.63;;
12970;SDS011;6550;48.650;8.774;2023-03-14T03:43:20;1.13;;;0.77;;
12970;SDS011;6550;48.650;8.774;2023-03-14T03:45:49;0.43;;;0.43;;
12970;SDS011;6550;48.650;8.774;2023-03-14T03:48:16;1.15;;;0.95;;
12970;SDS011;6550;48.650;8.774;2023-03-14T03:50:46;1.60;;;1.00;;
12970;SDS011;6550;48.650;8.774;2023-03-14T03:53:13;1.03;;;0.60;;
12970;SDS011;6550;48.650;8.774;2023-03-14T03:55:51;0.90;;;0.63;;
12970;SDS011;6550;48.650;8.774;2023-03-14T03:58:18;0.60;;;0.60;;
12970;SDS011;6550;48.650;8.774;2023-03-14T04:00:45;1.57;;;0.70;;
12970;SDS011;6550;48.650;8.774;2023-03-14T04:03:13;1.30;;;0.60;;
12970;SDS011;6550;48.650;8.774;2023-03-14T04:05:40;4.43;;;0.90;;
12970;SDS011;6550;48.650;8.774;2023-03-14T04:08:07;0.93;;;0.67;;
12970;SDS011;6550;48.650;8.774;2023-03-14T04:10:34;0.93;;;0.67;;
12970;SDS011;6550;48.650;8.774;2023-03-14T04:13:01;2.23;;;0.60;;
12970;SDS011;6550;48.650;8.774;2023-03-14T04:15:30;0.53;;;0.50;;
12970;SDS011;6550;48.650;8.774;2023-03-14T04:17:58;0.70;;;0.70;;
12970;SDS011;6550;48.650;8.774;2023-03-14T04:20:25;1.35;;;0.70;;
12970;SDS011;6550;48.650;8.774;2023-03-14T04:22:54;0.77;;;0.60;;
12970;SDS011;6550;48.650;8.774;2023-03-14T04:25:23;2.03;;;0.97;;
12970;SDS011;6550;48.650;8.774;2023-03-14T04:27:49;2.33;;;0.70;;
12970;SDS011;6550;48.650;8.774;2023-03-14T04:30:18;1.67;;;0.70;;
12970;SDS011;6550;48.650;8.774;2023-03-14T04:32:48;2.60;;;0.80;;
12970;SDS011;6550;48.650;8.774;2023-03-14T04:35:15;1.75;;;0.60;;
12970;SDS011;6550;48.650;8.774;2023-03-14T04:37:41;1.57;;;0.70;;
12970;SDS011;6550;48.650;8.774;2023-03-14T04:40:10;1.17;;;0.50;;
12970;SDS011;6550;48.650;8.774;2023-03-14T04:42:39;3.23;;;0.80;;
12970;SDS011;6550;48.650;8.774;2023-03-14T04:45:06;1.97;;;0.50;;
12970;SDS011;6550;48.650;8.774;2023-03-14T04:47:39;1.23;;;0.40;;
12970;SDS011;6550;48.650;8.774;2023-03-14T04:50:09;1.10;;;0.43;;
12970;SDS011;6550;48.650;8.774;2023-03-14T04:52:36;2.47;;;0.90;;
12970;SDS011;6550;48.650;8.774;2023-03-14T04:55:03;1.60;;;0.80;;
12970;SDS011;6550;48.650;8.774;2023-03-14T04:57:30;2.77;;;0.90;;
12970;SDS011;6550;48.650;8.774;2023-03-14T04:59:57;0.97;;;0.60;;
12970;SDS011;6550;48.650;8.774;2023-03-14T05:02:26;2.07;;;0.77;;
12970;SDS011;6550;48.650;8.774;2023-03-14T05:04:58;1.53;;;0.70;;
12970;SDS011;6550;48.650;8.774;2023-03-14T05:07:27;2.50;;;0.83;;
12970;SDS011;6550;48.650;8.774;2023-03-14T05:09:55;1.17;;;0.60;;
12970;SDS011;6550;48.650;8.774;2023-03-14T05:12:22;1.27;;;0.60;;
12970;SDS011;6550;48.650;8.774;2023-03-14T05:14:49;1.17;;;0.50;;
12970;SDS011;6550;48.650;8.774;2023-03-14T05:17:16;1.70;;;0.67;;
12970;SDS011;6550;48.650;8.774;2023-03-14T05:19:44;2.27;;;0.80;;
12970;SDS011;6550;48.650;8.774;2023-03-14T05:22:13;0.97;;;0.53;;
12970;SDS011;6550;48.650;8.774;2023-03-14T05:24:45;1.80;;;0.77;;
12970;SDS011;6550;48.650;8.774;2023-03-14T05:27:12;3.57;;;0.80;;
12970;SDS011;6550;48.650;8.774;2023-03-14T05:29:39;1.63;;;0.50;;
12970;SDS011;6550;48.650;8.774;2023-03-14T05:32:06;1.80;;;0.70;;
12970;SDS011;6550;48.650;8.774;2023-03-14T05:34:35;3.20;;;0.80;;
12970;SDS011;6550;48.650;8.774;2023-03-14T05:37:04;0.73;;;0.70;;
12970;SDS011;6550;48.650;8.774;2023-03-14T05:39:31;0.97;;;0.70;;
12970;SDS011;6550;48.650;8.774;2023-03-14T05:42:00;1.83;;;0.80;;
12970;SDS011;6550;48.650;8.774;2023-03-14T05:44:27;1.30;;;0.90;;
12970;SDS011;6550;48.650;8.774;2023-03-14T05:46:54;0.63;;;0.63;;
12970;SDS011;6550;48.650;8.774;2023-03-14T05:49:23;1.27;;;0.87;;
12970;SDS011;6550;48.650;8.774;2023-03-14T05:51:54;1.70;;;0.83;;
12970;SDS011;6550;48.650;8.774;2023-03-14T05:54:23;0.90;;;0.80;;
12970;SDS011;6550;48.650;8.774;2023-03-14T05:56:52;4.00;;;1.20;;
12970;SDS011;6550;48.650;8.774;2023-03-14T05:59:21;0.90;;;0.80;;
12970;SDS011;6550;48.650;8.774;2023-03-14T06:01:52;1.20;;;0.87;;
12970;SDS011;6550;48.650;8.774;2023-03-14T06:04:19;1.10;;;0.90;;
12970;SDS011;6550;48.650;8.774;2023-03-14T06:06:48;1.13;;;0.90;;
12970;SDS011;6550;48.650;8.774;2023-03-14T06:09:15;2.50;;;1.00;;
12970;SDS011;6550;48.650;8.774;2023-03-14T06:11:45;1.93;;;0.90;;
12970;SDS011;6550;48.650;8.774;2023-03-14T06:14:14;2.55;;;0.90;;
12970;SDS011;6550;48.650;8.774;2023-03-14T06:16:41;2.37;;;0.83;;
12970;SDS011;6550;48.650;8.774;2023-03-14T06:19:09;0.93;;;0.70;;
12970;SDS011;6550;48.650;8.774;2023-03-14T06:21:38;1.57;;;0.97;;
12970;SDS011;6550;48.650;8.774;2023-03-14T06:24:10;1.23;;;1.00;;
12970;SDS011;6550;48.650;8.774;2023-03-14T06:26:37;1.37;;;0.80;;
12970;SDS011;6550;48.650;8.774;2023-03-14T06:29:03;1.63;;;1.00;;
12970;SDS011;6550;48.650;8.774;2023-03-14T06:31:33;0.87;;;0.70;;
12970;SDS011;6550;48.650;8.774;2023-03-14T06:34:04;1.77;;;0.87;;
12970;SDS011;6550;48.650;8.774;2023-03-14T06:36:31;1.03;;;0.70;;
12970;SDS011;6550;48.650;8.774;2023-03-14T06:38:58;3.10;;;1.27;;
12970;SDS011;6550;48.650;8.774;2023-03-14T06:41:26;2.13;;;1.00;;
12970;SDS011;6550;48.650;8.774;2023-03-14T06:43:53;0.77;;;0.70;;
12970;SDS011;6550;48.650;8.774;2023-03-14T06:46:21;1.73;;;0.93;;
12970;SDS011;6550;48.650;8.774;2023-03-14T06:48:48;1.97;;;0.73;;
12970;SDS011;6550;48.650;8.774;2023-03-14T06:51:15;1.30;;;0.63;;
12970;SDS011;6550;48.650;8.774;2023-03-14T06:53:42;1.53;;;0.93;;
12970;SDS011;6550;48.650;8.774;2023-03-14T06:56:09;2.00;;;0.80;;
12970;SDS011;6550;48.650;8.774;2023-03-14T06:58:36;1.87;;;0.90;;
12970;SDS011;6550;48.650;8.774;2023-03-14T07:01:03;1.57;;;0.80;;
12970;SDS011;6550;48.650;8.774;2023-03-14T07:03:33;1.83;;;1.00;;
12970;SDS011;6550;48.650;8.774;2023-03-14T07:06:04;2.43;;;0.80;;
12970;SDS011;6550;48.650;8.774;2023-03-14T07:08:36;1.80;;;1.00;;
12970;SDS011;6550;48.650;8.774;2023-03-14T07:11:04;1.17;;;0.80;;
12970;SDS011;6550;48.650;8.774;2023-03-14T07:13:31;2.47;;;0.80;;
12970;SDS011;6550;48.650;8.774;2023-03-14T07:16:00;1.00;;;0.73;;
12970;SDS011;6550;48.650;8.774;2023-03-14T07:18:27;1.17;;;1.10;;
12970;SDS011;6550;48.650;8.774;2023-03-14T07:20:59;1.53;;;1.00;;
12970;SDS011;6550;48.650;8.774;2023-03-14T07:23:25;1.50;;;1.40;;
12970;SDS011;6550;48.650;8.774;2023-03-14T07:25:55;1.20;;;1.03;;
12970;SDS011;6550;48.650;8.774;2023-03-14T07:28:21;2.50;;;1.63;;
12970;SDS011;6550;48.650;8.774;2023-03-14T07:30:54;2.60;;;1.67;;
12970;SDS011;6550;48.650;8.774;2023-03-14T07:33:21;2.10;;;1.30;;
12970;SDS011;6550;48.650;8.774;2023-03-14T07:35:50;1.50;;;1.20;;
12970;SDS011;6550;48.650;8.774;2023-03-14T07:38:17;2.33;;;1.50;;
12970;SDS011;6550;48.650;8.774;2023-03-14T07:40:46;1.73;;;1.43;;
12970;SDS011;6550;48.650;8.774;2023-03-14T07:43:13;1.17;;;1.07;;
12970;SDS011;6550;48.650;8.774;2023-03-14T07:45:46;1.50;;;1.17;;
12970;SDS011;6550;48.650;8.774;2023-03-14T07:48:18;2.47;;;1.20;;
12970;SDS011;6550;48.650;8.774;2023-03-14T07:50:48;2.37;;;1.40;;
12970;SDS011;6550;48.650;8.774;2023-03-14T07:53:15;2.93;;;1.10;;
12970;SDS011;6550;48.650;8.774;2023-03-14T07:55:44;1.27;;;0.90;;
12970;SDS011;6550;48.650;8.774;2023-03-14T07:58:12;0.93;;;0.90;;
12970;SDS011;6550;48.650;8.774;2023-03-14T08:00:38;0.80;;;0.77;;
12970;SDS011;6550;48.650;8.774;2023-03-14T08:03:05;0.93;;;0.80;;
12970;SDS011;6550;48.650;8.774;2023-03-14T08:05:37;1.07;;;0.93;;
12970;SDS011;6550;48.650;8.774;2023-03-14T08:08:04;1.70;;;0.90;;
12970;SDS011;6550;48.650;8.774;2023-03-14T08:10:31;1.15;;;0.80;;
12970;SDS011;6550;48.650;8.774;2023-03-14T08:12:59;1.27;;;0.90;;
12970;SDS011;6550;48.650;8.774;2023-03-14T08:15:28;1.10;;;0.90;;
12970;SDS011;6550;48.650;8.774;2023-03-14T08:17:55;1.80;;;0.70;;
12970;SDS011;6550;48.650;8.774;2023-03-14T08:20:23;1.50;;;0.80;;
12970;SDS011;6550;48.650;8.774;2023-03-14T08:22:55;1.07;;;0.87;;
12970;SDS011;6550;48.650;8.774;2023-03-14T08:25:24;2.30;;;0.80;;
12970;SDS011;6550;48.650;8.774;2023-03-14T08:27:53;1.60;;;0.90;;
12970;SDS011;6550;48.650;8.774;2023-03-14T08:30:21;0.80;;;0.77;;
12970;SDS011;6550;48.650;8.774;2023-03-14T08:32:48;1.50;;;0.97;;
12970;SDS011;6550;48.650;8.774;2023-03-14T08:35:18;1.17;;;0.77;;
12970;SDS011;6550;48.650;8.774;2023-03-14T08:37:49;2.83;;;1.03;;
12970;SDS011;6550;48.650;8.774;2023-03-14T08:40:18;0.77;;;0.63;;
12970;SDS011;6550;48.650;8.774;2023-03-14T08:42:45;1.27;;;0.70;;
12970;SDS011;6550;48.650;8.774;2023-03-14T08:45:13;0.60;;;0.57;;
12970;SDS011;6550;48.650;8.774;2023-03-14T08:47:43;0.73;;;0.60;;
12970;SDS011;6550;48.650;8.774;2023-03-14T08:50:13;1.23;;;0.60;;
12970;SDS011;6550;48.650;8.774;2023-03-14T08:52:41;1.00;;;0.50;;
12970;SDS011;6550;48.650;8.774;2023-03-14T08:55:08;2.63;;;0.40;;
12970;SDS011;6550;48.650;8.774;2023-03-14T08:57:38;2.13;;;0.63;;
12970;SDS011;6550;48.650;8.774;2023-03-14T09:00:05;0.90;;;0.47;;
12970;SDS011;6550;48.650;8.774;2023-03-14T09:02:36;0.53;;;0.53;;
12970;SDS011;6550;48.650;8.774;2023-03-14T09:05:04;3.20;;;0.87;;
12970;SDS011;6550;48.650;8.774;2023-03-14T09:07:33;1.40;;;0.50;;
12970;SDS011;6550;48.650;8.774;2023-03-14T09:10:00;0.67;;;0.63;;
12970;SDS011;6550;48.650;8.774;2023-03-14T09:12:27;0.57;;;0.57;;
12970;SDS011;6550;48.650;8.774;2023-03-14T09:14:56;0.73;;;0.50;;
12970;SDS011;6550;48.650;8.774;2023-03-14T09:17:23;3.17;;;0.63;;
12970;SDS011;6550;48.650;8.774;2023-03-14T09:19:52;0.43;;;0.43;;
12970;SDS011;6550;48.650;8.774;2023-03-14T09:22:25;0.70;;;0.40;;
12970;SDS011;6550;48.650;8.774;2023-03-14T09:24:52;0.93;;;0.63;;
12970;SDS011;6550;48.650;8.774;2023-03-14T09:27:18;0.90;;;0.47;;
12970;SDS011;6550;48.650;8.774;2023-03-14T09:29:45;0.50;;;0.50;;
12970;SDS011;6550;48.650;8.774;2023-03-14T09:32:12;1.10;;;0.50;;
12970;SDS011;6550;48.650;8.774;2023-03-14T09:34:41;0.77;;;0.60;;
12970;SDS011;6550;48.650;8.774;2023-03-14T09:37:08;0.67;;;0.50;;
12970;SDS011;6550;48.650;8.774;2023-03-14T09:39:35;1.10;;;0.70;;
12970;SDS011;6550;48.650;8.774;2023-03-14T09:42:04;0.47;;;0.47;;
12970;SDS011;6550;48.650;8.774;2023-03-14T09:44:37;1.13;;;0.50;;
12970;SDS011;6550;48.650;8.774;2023-03-14T09:47:10;0.83;;;0.50;;
12970;SDS011;6550;48.650;8.774;2023-03-14T09:49:42;0.77;;;0.50;;
12970;SDS011;6550;48.650;8.774;2023-03-14T09:52:17;0.70;;;0.43;;
12970;SDS011;6550;48.650;8.774;2023-03-14T09:54:53;0.43;;;0.43;;
12970;SDS011;6550;48.650;8.774;2023-03-14T09:57:33;0.47;;;0.47;;
12970;SDS011;6550;48.650;8.774;2023-03-14T10:00:03;0.37;;;0.37;;
12970;SDS011;6550;48.650;8.774;2023-03-14T10:02:41;0.50;;;0.47;;
12970;SDS011;6550;48.650;8.774;2023-03-14T10:05:14;1.30;;;0.60;;
12970;SDS011;6550;48.650;8.774;2023-03-14T10:07:43;0.83;;;0.40;;
12970;SDS011;6550;48.650;8.774;2023-03-14T10:10:11;1.07;;;0.50;;
12970;SDS011;6550;48.650;8.774;2023-03-14T10:12:44;1.93;;;0.40;;
12970;SDS011;6550;48.650;8.774;2023-03-14T10:15:13;0.77;;;0.47;;
12970;SDS011;6550;48.650;8.774;2023-03-14T10:17:49;0.30;;;0.30;;
12970;SDS011;6550;48.650;8.774;2023-03-14T10:23:01;0.80;;;0.30;;
12970;SDS011;6550;48.650;8.774;2023-03-14T10:25:31;0.20;;;0.20;;
12970;SDS011;6550;48.650;8.774;2023-03-14T10:28:02;0.50;;;0.30;;
12970;SDS011;6550;48.650;8.774;2023-03-14T10:38:26;0.57;;;0.27;;
12970;SDS011;6550;48.650;8.774;2023-03-14T10:40:57;0.50;;;0.20;;
12970;SDS011;6550;48.650;8.774;2023-03-14T10:45:54;0.63;;;0.40;;
12970;SDS011;6550;48.650;8.774;2023-03-14T10:48:34;0.30;;;0.30;;
12970;SDS011;6550;48.650;8.774;2023-03-14T10:51:07;0.40;;;0.40;;
12970;SDS011;6550;48.650;8.774;2023-03-14T10:56:35;0.43;;;0.40;;
12970;SDS011;6550;48.650;8.774;2023-03-14T10:59:04;0.40;;;0.40;;
12970;SDS011;6550;48.650;8.774;2023-03-14T11:07:36;0.20;;;0.20;;
12970;SDS011;6550;48.650;8.774;2023-03-14T11:13:12;0.30;;;0.30;;
12970;SDS011;6550;48.650;8.774;2023-03-14T11:18:48;0.40;;;0.40;;
12970;SDS011;6550;48.650;8.774;2023-03-14T11:21:46;0.97;;;0.40;;
12970;SDS011;6550;48.650;8.774;2023-03-14T11:27:18;0.20;;;0.20;;
12970;SDS011;6550;48.650;8.774;2023-03-14T11:37:47;0.30;;;0.30;;
12970;SDS011;6550;48.650;8.774;2023-03-14T11:40:39;0.65;;;0.43;;
12970;SDS011;6550;48.650;8.774;2023-03-14T11:45:46;2.43;;;0.40;;
12970;SDS011;6550;48.650;8.774;2023-03-14T11:48:51;0.20;;;0.20;;
12970;SDS011;6550;48.650;8.774;2023-03-14T11:51:15;0.63;;;0.60;;
12970;SDS011;6550;48.650;8.774;2023-03-14T11:56:27;0.77;;;0.70;;
12970;SDS011;6550;48.650;8.774;2023-03-14T11:59:27;0.70;;;0.60;;
12970;SDS011;6550;48.650;8.774;2023-03-14T12:05:21;0.43;;;0.33;;
12970;SDS011;6550;48.650;8.774;2023-03-14T12:10:48;0.40;;;0.40;;
12970;SDS011;6550;48.650;8.774;2023-03-14T12:13:21;0.30;;;0.30;;
12970;SDS011;6550;48.650;8.774;2023-03-14T12:15:49;0.33;;;0.33;;
12970;SDS011;6550;48.650;8.774;2023-03-14T12:21:00;3.03;;;0.30;;
12970;SDS011;6550;48.650;8.774;2023-03-14T12:23:34;0.30;;;0.20;;
12970;SDS011;6550;48.650;8.774;2023-03-14T12:34:02;0.23;;;0.20;;
12970;SDS011;6550;48.650;8.774;2023-03-14T12:37:01;0.93;;;0.40;;
12970;SDS011;6550;48.650;8.774;2023-03-14T12:45:49;3.27;;;0.40;;
12970;SDS011;6550;48.650;8.774;2023-03-14T12:48:31;0.40;;;0.20;;
12970;SDS011;6550;48.650;8.774;2023-03-14T12:51:02;0.40;;;0.40;;
12970;SDS011;6550;48.650;8.774;2023-03-14T12:53:38;0.67;;;0.40;;
12970;SDS011;6550;48.650;8.774;2023-03-14T12:56:32;0.57;;;0.30;;
12970;SDS011;6550;48.650;8.774;2023-03-14T13:04:36;1.10;;;0.60;;
12970;SDS011;6550;48.650;8.774;2023-03-14T13:07:35;0.63;;;0.40;;
12970;SDS011;6550;48.650;8.774;2023-03-14T13:17:52;0.40;;;0.30;;
12970;SDS011;6550;48.650;8.774;2023-03-14T13:20:33;0.50;;;0.50;;
12970;SDS011;6550;48.650;8.774;2023-03-14T13:23:03;0.37;;;0.30;;
12970;SDS011;6550;48.650;8.774;2023-03-14T13:25:31;2.63;;;0.47;;
12970;SDS011;6550;48.650;8.774;2023-03-14T13:28:02;1.23;;;0.50;;
12970;SDS011;6550;48.650;8.774;2023-03-14T13:30:36;0.60;;;0.50;;
12970;SDS011;6550;48.650;8.774;2023-03-14T13:33:11;1.20;;;0.60;;
12970;SDS011;6550;48.650;8.774;2023-03-14T13:38:30;0.60;;;0.60;;
12970;SDS011;6550;48.650;8.774;2023-03-14T13:41:03;2.60;;;0.53;;
12970;SDS011;6550;48.650;8.774;2023-03-14T13:43:43;0.80;;;0.70;;
12970;SDS011;6550;48.650;8.774;2023-03-14T13:46:15;1.50;;;0.80;;
12970;SDS011;6550;48.650;8.774;2023-03-14T13:48:50;0.80;;;0.60;;
12970;SDS011;6550;48.650;8.774;2023-03-14T13:51:27;1.10;;;0.60;;
12970;SDS011;6550;48.650;8.774;2023-03-14T13:54:01;1.57;;;0.70;;
12970;SDS011;6550;48.650;8.774;2023-03-14T13:56:32;1.87;;;0.50;;
12970;SDS011;6550;48.650;8.774;2023-03-14T13:58:59;0.80;;;0.60;;
12970;SDS011;6550;48.650;8.774;2023-03-14T14:01:32;1.87;;;0.80;;
12970;SDS011;6550;48.650;8.774;2023-03-14T14:04:14;0.73;;;0.50;;
12970;SDS011;6550;48.650;8.774;2023-03-14T14:06:46;2.63;;;0.50;;
12970;SDS011;6550;48.650;8.774;2023-03-14T14:09:19;0.83;;;0.50;;
12970;SDS011;6550;48.650;8.774;2023-03-14T14:14:41;0.73;;;0.40;;
12970;SDS011;6550;48.650;8.774;2023-03-14T14:17:12;0.33;;;0.30;;
12970;SDS011;6550;48.650;8.774;2023-03-14T14:19:47;0.43;;;0.40;;
12970;SDS011;6550;48.650;8.774;2023-03-14T14:22:17;1.23;;;0.43;;
12970;SDS011;6550;48.650;8.774;2023-03-14T14:24:44;1.47;;;0.60;;
12970;SDS011;6550;48.650;8.774;2023-03-14T14:27:19;0.87;;;0.40;;
12970;SDS011;6550;48.650;8.774;2023-03-14T14:30:04;0.90;;;0.50;;
12970;SDS011;6550;48.650;8.774;2023-03-14T14:32:39;0.80;;;0.50;;
12970;SDS011;6550;48.650;8.774;2023-03-14T14:35:22;0.90;;;0.47;;
12970;SDS011;6550;48.650;8.774;2023-03-14T14:37:48;0.30;;;0.30;;
12970;SDS011;6550;48.650;8.774;2023-03-14T14:40:17;0.87;;;0.60;;
12970;SDS011;6550;48.650;8.774;2023-03-14T14:42:46;0.90;;;0.50;;
12970;SDS011;6550;48.650;8.774;2023-03-14T14:45:17;1.40;;;0.60;;
12970;SDS011;6550;48.650;8.774;2023-03-14T14:47:52;0.80;;;0.47;;
12970;SDS011;6550;48.650;8.774;2023-03-14T14:50:37;2.43;;;0.60;;
12970;SDS011;6550;48.650;8.774;2023-03-14T14:55:51;1.43;;;0.70;;
12970;SDS011;6550;48.650;8.774;2023-03-14T15:01:08;1.23;;;0.77;;
12970;SDS011;6550;48.650;8.774;2023-03-14T15:03:49;1.07;;;0.60;;
12970;SDS011;6550;48.650;8.774;2023-03-14T15:06:17;2.03;;;0.83;;
12970;SDS011;6550;48.650;8.774;2023-03-14T15:08:45;1.13;;;0.77;;
12970;SDS011;6550;48.650;8.774;2023-03-14T15:11:17;1.73;;;0.70;;
12970;SDS011;6550;48.650;8.774;2023-03-14T15:13:45;1.20;;;0.67;;
12970;SDS011;6550;48.650;8.774;2023-03-14T15:16:12;0.80;;;0.80;;
12970;SDS011;6550;48.650;8.774;2023-03-14T15:18:44;3.70;;;0.90;;
12970;SDS011;6550;48.650;8.774;2023-03-14T15:21:18;1.13;;;0.70;;
12970;SDS011;6550;48.650;8.774;2023-03-14T15:23:45;1.67;;;0.80;;
12970;SDS011;6550;48.650;8.774;2023-03-14T15:26:19;2.77;;;0.90;;
12970;SDS011;6550;48.650;8.774;2023-03-14T15:28:48;4.30;;;0.90;;
12970;SDS011;6550;48.650;8.774;2023-03-14T15:31:16;1.47;;;0.90;;
12970;SDS011;6550;48.650;8.774;2023-03-14T15:33:44;3.00;;;1.10;;
12970;SDS011;6550;48.650;8.774;2023-03-14T15:36:22;3.03;;;1.00;;
12970;SDS011;6550;48.650;8.774;2023-03-14T15:38:54;2.90;;;0.87;;
12970;SDS011;6550;48.650;8.774;2023-03-14T15:41:22;3.43;;;0.80;;
12970;SDS011;6550;48.650;8.774;2023-03-14T15:43:49;2.40;;;1.07;;
12970;SDS011;6550;48.650;8.774;2023-03-14T15:46:16;1.57;;;1.00;;
12970;SDS011;6550;48.650;8.774;2023-03-14T15:48:44;3.47;;;1.20;;
12970;SDS011;6550;48.650;8.774;2023-03-14T15:51:12;1.60;;;1.10;;
12970;SDS011;6550;48.650;8.774;2023-03-14T15:53:42;1.87;;;1.10;;
12970;SDS011;6550;48.650;8.774;2023-03-14T15:56:13;3.40;;;0.90;;
12970;SDS011;6550;48.650;8.774;2023-03-14T15:58:42;2.33;;;1.20;;
12970;SDS011;6550;48.650;8.774;2023-03-14T16:01:13;1.77;;;1.27;;
12970;SDS011;6550;48.650;8.774;2023-03-14T16:03:43;2.07;;;1.23;;
12970;SDS011;6550;48.650;8.774;2023-03-14T16:06:11;1.60;;;1.20;;
12970;SDS011;6550;48.650;8.774;2023-03-14T16:08:39;2.67;;;1.10;;
12970;SDS011;6550;48.650;8.774;2023-03-14T16:11:06;4.70;;;1.37;;
12970;SDS011;6550;48.650;8.774;2023-03-14T16:13:33;6.00;;;1.70;;
12970;SDS011;6550;48.650;8.774;2023-03-14T16:16:00;3.23;;;1.17;;
12970;SDS011;6550;48.650;8.774;2023-03-14T16:18:33;2.80;;;1.43;;
12970;SDS011;6550;48.650;8.774;2023-03-14T16:21:12;1.43;;;1.17;;
12970;SDS011;6550;48.650;8.774;2023-03-14T16:23:43;1.90;;;1.70;;
12970;SDS011;6550;48.650;8.774;2023-03-14T16:26:14;3.40;;;1.50;;
12970;SDS011;6550;48.650;8.774;2023-03-14T16:28:45;2.03;;;1.37;;
12970;SDS011;6550;48.650;8.774;2023-03-14T16:31:14;2.10;;;1.50;;
12970;SDS011;6550;48.650;8.774;2023-03-14T16:33:46;3.40;;;1.90;;
12970;SDS011;6550;48.650;8.774;2023-03-14T16:36:14;2.77;;;1.90;;
12970;SDS011;6550;48.650;8.774;2023-03-14T16:38:41;1.83;;;1.33;;
12970;SDS011;6550;48.650;8.774;2023-03-14T16:41:10;3.05;;;1.40;;
12970;SDS011;6550;48.650;8.774;2023-03-14T16:43:38;1.97;;;1.23;;
12970;SDS011;6550;48.650;8.774;2023-03-14T16:46:06;1.50;;;1.10;;
12970;SDS011;6550;48.650;8.774;2023-03-14T16:48:38;1.93;;;1.13;;
12970;SDS011;6550;48.650;8.774;2023-03-14T16:51:05;1.90;;;1.03;;
12970;SDS011;6550;48.650;8.774;2023-03-14T16:53:33;2.47;;;1.30;;
12970;SDS011;6550;48.650;8.774;2023-03-14T16:55:59;1.70;;;1.00;;
12970;SDS011;6550;48.650;8.774;2023-03-14T16:58:26;1.37;;;0.93;;
12970;SDS011;6550;48.650;8.774;2023-03-14T17:00:56;1.70;;;1.30;;
12970;SDS011;6550;48.650;8.774;2023-03-14T17:03:23;1.30;;;1.10;;